sensor_id;sensor_type;location;lat;lon;timestamp;temperature;humidity
46319;DHT22;32042;50.916;2.926;2024-02-23T00:00:29;6.00;99.90
46319;DHT22;32042;50.916;2.926;2024-02-23T00:02:54;6.00;99.90
46319;DHT22;32042;50.916;2.926;2024-02-23T00:05:22;6.00;99.90
46319;DHT22;32042;50.916;2.926;2024-02-23T00:07:48;5.90;99.90
46319;DHT22;32042;50.916;2.926;2024-02-23T00:10:14;5.90;99.90
46319;DHT22;32042;50.916;2.926;2024-02-23T00:12:39;5.90;99.90
46319;DHT22;32042;50.916;2.926;2024-02-23T00:15:05;5.90;99.90
46319;DHT22;32042;50.916;2.926;2024-02-23T00:17:32;5.80;99.90
46319;DHT22;32042;50.916;2.926;2024-02-23T00:19:58;5.80;99.90
46319;DHT22;32042;50.916;2.926;2024-02-23T00:22:24;5.80;99.90
46319;DHT22;32042;50.916;2.926;2024-02-23T00:24:51;5.80;99.90
46319;DHT22;32042;50.916;2.926;2024-02-23T00:27:17;5.70;99.90
46319;DHT22;32042;50.916;2.926;2024-02-23T00:29:42;5.70;99.90
46319;DHT22;32042;50.916;2.926;2024-02-23T00:32:08;5.60;99.90
46319;DHT22;32042;50.916;2.926;2024-02-23T00:34:34;5.60;99.90
46319;DHT22;32042;50.916;2.926;2024-02-23T00:37:00;5.50;99.90
46319;DHT22;32042;50.916;2.926;2024-02-23T00:39:25;5.50;99.90
46319;DHT22;32042;50.916;2.926;2024-02-23T00:41:51;5.50;99.90
46319;DHT22;32042;50.916;2.926;2024-02-23T00:44:17;5.40;99.90
46319;DHT22;32042;50.916;2.926;2024-02-23T00:46:42;5.40;99.90
46319;DHT22;32042;50.916;2.926;2024-02-23T00:49:08;5.40;99.90
46319;DHT22;32042;50.916;2.926;2024-02-23T00:51:34;5.40;99.90
46319;DHT22;32042;50.916;2.926;2024-02-23T00:53:59;5.30;99.90
46319;DHT22;32042;50.916;2.926;2024-02-23T00:56:25;5.30;99.90
46319;DHT22;32042;50.916;2.926;2024-02-23T00:58:51;5.30;99.90
46319;DHT22;32042;50.916;2.926;2024-02-23T01:01:17;5.30;99.90
46319;DHT22;32042;50.916;2.926;2024-02-23T01:03:43;5.20;99.90
46319;DHT22;32042;50.916;2.926;2024-02-23T01:06:09;5.20;99.90
46319;DHT22;32042;50.916;2.926;2024-02-23T01:08:35;5.20;99.90
46319;DHT22;32042;50.916;2.926;2024-02-23T01:11:01;5.20;99.90
46319;DHT22;32042;50.916;2.926;2024-02-23T01:13:27;5.20;99.90
46319;DHT22;32042;50.916;2.926;2024-02-23T01:15:52;5.10;99.90
46319;DHT22;32042;50.916;2.926;2024-02-23T01:18:19;5.10;99.90
46319;DHT22;32042;50.916;2.926;2024-02-23T01:20:45;5.10;99.90
46319;DHT22;32042;50.916;2.926;2024-02-23T01:23:11;5.10;99.90
46319;DHT22;32042;50.916;2.926;2024-02-23T01:25:36;5.10;99.90
46319;DHT22;32042;50.916;2.926;2024-02-23T01:28:03;5.10;99.90
46319;DHT22;32042;50.916;2.926;2024-02-23T01:30:29;5.10;99.90
46319;DHT22;32042;50.916;2.926;2024-02-23T01:32:54;5.10;99.90
46319;DHT22;32042;50.916;2.926;2024-02-23T01:35:20;5.20;99.90
46319;DHT22;32042;50.916;2.926;2024-02-23T01:37:46;5.20;99.90
46319;DHT22;32042;50.916;2.926;2024-02-23T01:40:11;5.20;99.90
46319;DHT22;32042;50.916;2.926;2024-02-23T01:42:38;5.30;99.90
46319;DHT22;32042;50.916;2.926;2024-02-23T01:45:04;5.30;99.90
46319;DHT22;32042;50.916;2.926;2024-02-23T01:47:30;5.30;99.90
46319;DHT22;32042;50.916;2.926;2024-02-23T01:49:58;5.30;99.90
46319;DHT22;32042;50.916;2.926;2024-02-23T01:52:24;5.40;99.90
46319;DHT22;32042;50.916;2.926;2024-02-23T01:54:51;5.40;99.90
46319;DHT22;32042;50.916;2.926;2024-02-23T01:57:17;5.40;99.90
46319;DHT22;32042;50.916;2.926;2024-02-23T01:59:43;5.40;99.90
46319;DHT22;32042;50.916;2.926;2024-02-23T02:02:09;5.50;99.90
46319;DHT22;32042;50.916;2.926;2024-02-23T02:04:35;5.50;99.90
46319;DHT22;32042;50.916;2.926;2024-02-23T02:07:02;5.50;99.90
46319;DHT22;32042;50.916;2.926;2024-02-23T02:09:28;5.50;99.90
46319;DHT22;32042;50.916;2.926;2024-02-23T02:11:54;5.50;99.90
46319;DHT22;32042;50.916;2.926;2024-02-23T02:14:20;5.50;99.90
46319;DHT22;32042;50.916;2.926;2024-02-23T02:16:46;5.50;99.90
46319;DHT22;32042;50.916;2.926;2024-02-23T02:19:12;5.50;99.90
46319;DHT22;32042;50.916;2.926;2024-02-23T02:21:38;5.50;99.90
46319;DHT22;32042;50.916;2.926;2024-02-23T02:24:04;5.50;99.90
46319;DHT22;32042;50.916;2.926;2024-02-23T02:26:30;5.50;99.90
46319;DHT22;32042;50.916;2.926;2024-02-23T02:28:56;5.50;99.90
46319;DHT22;32042;50.916;2.926;2024-02-23T02:31:22;5.50;99.90
46319;DHT22;32042;50.916;2.926;2024-02-23T02:33:48;5.50;99.90
46319;DHT22;32042;50.916;2.926;2024-02-23T02:36:13;5.50;99.90
46319;DHT22;32042;50.916;2.926;2024-02-23T02:38:39;5.50;99.90
46319;DHT22;32042;50.916;2.926;2024-02-23T02:41:05;5.50;99.90
46319;DHT22;32042;50.916;2.926;2024-02-23T02:43:31;5.50;99.90
46319;DHT22;32042;50.916;2.926;2024-02-23T02:45:57;5.60;99.90
46319;DHT22;32042;50.916;2.926;2024-02-23T02:48:24;5.60;99.90
46319;DHT22;32042;50.916;2.926;2024-02-23T02:50:50;5.60;99.90
46319;DHT22;32042;50.916;2.926;2024-02-23T02:53:16;5.60;99.90
46319;DHT22;32042;50.916;2.926;2024-02-23T02:55:43;5.60;99.90
46319;DHT22;32042;50.916;2.926;2024-02-23T02:58:13;5.50;99.90
46319;DHT22;32042;50.916;2.926;2024-02-23T03:00:38;5.50;99.90
46319;DHT22;32042;50.916;2.926;2024-02-23T03:03:04;5.50;99.90
46319;DHT22;32042;50.916;2.926;2024-02-23T03:05:32;5.50;99.90
46319;DHT22;32042;50.916;2.926;2024-02-23T03:07:58;5.50;99.90
46319;DHT22;32042;50.916;2.926;2024-02-23T03:10:23;5.40;99.90
46319;DHT22;32042;50.916;2.926;2024-02-23T03:12:49;5.40;99.90
46319;DHT22;32042;50.916;2.926;2024-02-23T03:15:15;5.40;99.90
46319;DHT22;32042;50.916;2.926;2024-02-23T03:17:41;5.40;99.90
46319;DHT22;32042;50.916;2.926;2024-02-23T03:20:07;5.40;99.90
46319;DHT22;32042;50.916;2.926;2024-02-23T03:22:35;5.40;99.90
46319;DHT22;32042;50.916;2.926;2024-02-23T03:25:01;5.40;99.90
46319;DHT22;32042;50.916;2.926;2024-02-23T03:27:34;5.40;99.90
46319;DHT22;32042;50.916;2.926;2024-02-23T03:29:59;5.40;99.90
46319;DHT22;32042;50.916;2.926;2024-02-23T03:32:25;5.40;99.90
46319;DHT22;32042;50.916;2.926;2024-02-23T03:34:51;5.40;99.90
46319;DHT22;32042;50.916;2.926;2024-02-23T03:37:17;5.50;99.90
46319;DHT22;32042;50.916;2.926;2024-02-23T03:39:43;5.50;99.90
46319;DHT22;32042;50.916;2.926;2024-02-23T03:42:08;5.50;99.90
46319;DHT22;32042;50.916;2.926;2024-02-23T03:44:34;5.50;99.90
46319;DHT22;32042;50.916;2.926;2024-02-23T03:47:00;5.50;99.90
46319;DHT22;32042;50.916;2.926;2024-02-23T03:49:26;5.50;99.90
46319;DHT22;32042;50.916;2.926;2024-02-23T03:51:52;5.50;99.90
46319;DHT22;32042;50.916;2.926;2024-02-23T03:54:17;5.50;99.90
46319;DHT22;32042;50.916;2.926;2024-02-23T03:56:43;5.60;99.90
46319;DHT22;32042;50.916;2.926;2024-02-23T03:59:09;5.60;99.90
46319;DHT22;32042;50.916;2.926;2024-02-23T04:01:39;5.60;99.90
46319;DHT22;32042;50.916;2.926;2024-02-23T04:04:05;5.60;99.90
46319;DHT22;32042;50.916;2.926;2024-02-23T04:06:32;5.60;99.90
46319;DHT22;32042;50.916;2.926;2024-02-23T04:08:59;5.60;99.90
46319;DHT22;32042;50.916;2.926;2024-02-23T04:11:24;5.60;99.90
46319;DHT22;32042;50.916;2.926;2024-02-23T04:13:50;5.60;99.90
46319;DHT22;32042;50.916;2.926;2024-02-23T04:16:16;5.60;99.90
46319;DHT22;32042;50.916;2.926;2024-02-23T04:18:41;5.50;99.90
46319;DHT22;32042;50.916;2.926;2024-02-23T04:21:07;5.50;99.90
46319;DHT22;32042;50.916;2.926;2024-02-23T04:23:33;5.50;99.90
46319;DHT22;32042;50.916;2.926;2024-02-23T04:25:59;5.50;99.90
46319;DHT22;32042;50.916;2.926;2024-02-23T04:28:25;5.40;99.90
46319;DHT22;32042;50.916;2.926;2024-02-23T04:30:52;5.40;99.90
46319;DHT22;32042;50.916;2.926;2024-02-23T04:33:18;5.40;99.90
46319;DHT22;32042;50.916;2.926;2024-02-23T04:35:43;5.40;99.90
46319;DHT22;32042;50.916;2.926;2024-02-23T04:38:09;5.40;99.90
46319;DHT22;32042;50.916;2.926;2024-02-23T04:40:35;5.40;99.90
46319;DHT22;32042;50.916;2.926;2024-02-23T04:43:01;5.40;99.90
46319;DHT22;32042;50.916;2.926;2024-02-23T04:45:26;5.30;99.90
46319;DHT22;32042;50.916;2.926;2024-02-23T04:47:52;5.40;99.90
46319;DHT22;32042;50.916;2.926;2024-02-23T04:50:18;5.30;99.90
46319;DHT22;32042;50.916;2.926;2024-02-23T04:52:43;5.30;99.90
46319;DHT22;32042;50.916;2.926;2024-02-23T04:55:09;5.40;99.90
46319;DHT22;32042;50.916;2.926;2024-02-23T04:57:36;5.40;99.90
46319;DHT22;32042;50.916;2.926;2024-02-23T05:00:03;5.40;99.90
46319;DHT22;32042;50.916;2.926;2024-02-23T05:02:29;5.40;99.90
46319;DHT22;32042;50.916;2.926;2024-02-23T05:05:01;5.40;99.90
46319;DHT22;32042;50.916;2.926;2024-02-23T05:07:27;5.40;99.90
46319;DHT22;32042;50.916;2.926;2024-02-23T05:09:52;5.40;99.90
46319;DHT22;32042;50.916;2.926;2024-02-23T05:12:18;5.40;99.90
46319;DHT22;32042;50.916;2.926;2024-02-23T05:14:44;5.40;99.90
46319;DHT22;32042;50.916;2.926;2024-02-23T05:17:09;5.40;99.90
46319;DHT22;32042;50.916;2.926;2024-02-23T05:19:35;5.40;99.90
46319;DHT22;32042;50.916;2.926;2024-02-23T05:22:01;5.40;99.90
46319;DHT22;32042;50.916;2.926;2024-02-23T05:24:26;5.40;99.90
46319;DHT22;32042;50.916;2.926;2024-02-23T05:26:52;5.40;99.90
46319;DHT22;32042;50.916;2.926;2024-02-23T05:29:18;5.40;99.90
46319;DHT22;32042;50.916;2.926;2024-02-23T05:31:50;5.40;99.90
46319;DHT22;32042;50.916;2.926;2024-02-23T05:34:16;5.40;99.90
46319;DHT22;32042;50.916;2.926;2024-02-23T05:36:43;5.40;99.90
46319;DHT22;32042;50.916;2.926;2024-02-23T05:39:10;5.40;99.90
46319;DHT22;32042;50.916;2.926;2024-02-23T05:41:37;5.40;99.90
46319;DHT22;32042;50.916;2.926;2024-02-23T05:44:04;5.40;99.90
46319;DHT22;32042;50.916;2.926;2024-02-23T05:46:35;5.40;99.90
46319;DHT22;32042;50.916;2.926;2024-02-23T05:49:02;5.40;99.90
46319;DHT22;32042;50.916;2.926;2024-02-23T05:51:31;5.40;99.90
46319;DHT22;32042;50.916;2.926;2024-02-23T05:53:58;5.40;99.90
46319;DHT22;32042;50.916;2.926;2024-02-23T05:56:24;5.40;99.90
46319;DHT22;32042;50.916;2.926;2024-02-23T05:58:50;5.40;99.90
46319;DHT22;32042;50.916;2.926;2024-02-23T06:01:17;5.50;99.90
46319;DHT22;32042;50.916;2.926;2024-02-23T06:03:43;5.50;99.90
46319;DHT22;32042;50.916;2.926;2024-02-23T06:06:10;5.50;99.90
46319;DHT22;32042;50.916;2.926;2024-02-23T06:08:36;5.50;99.90
46319;DHT22;32042;50.916;2.926;2024-02-23T06:11:03;5.50;99.90
46319;DHT22;32042;50.916;2.926;2024-02-23T06:13:32;5.60;99.90
46319;DHT22;32042;50.916;2.926;2024-02-23T06:15:57;5.50;99.90
46319;DHT22;32042;50.916;2.926;2024-02-23T06:18:23;5.50;99.90
46319;DHT22;32042;50.916;2.926;2024-02-23T06:20:49;5.60;99.90
46319;DHT22;32042;50.916;2.926;2024-02-23T06:23:16;5.60;99.90
46319;DHT22;32042;50.916;2.926;2024-02-23T06:25:42;5.60;99.90
46319;DHT22;32042;50.916;2.926;2024-02-23T06:28:09;5.60;99.90
46319;DHT22;32042;50.916;2.926;2024-02-23T06:30:36;5.60;99.90
46319;DHT22;32042;50.916;2.926;2024-02-23T06:33:02;5.60;99.90
46319;DHT22;32042;50.916;2.926;2024-02-23T06:35:29;5.60;99.90
46319;DHT22;32042;50.916;2.926;2024-02-23T06:37:56;5.60;99.90
46319;DHT22;32042;50.916;2.926;2024-02-23T06:40:22;5.60;99.90
46319;DHT22;32042;50.916;2.926;2024-02-23T06:42:48;5.60;99.90
46319;DHT22;32042;50.916;2.926;2024-02-23T06:45:14;5.60;99.90
46319;DHT22;32042;50.916;2.926;2024-02-23T06:47:39;5.60;99.90
46319;DHT22;32042;50.916;2.926;2024-02-23T06:50:06;5.50;99.90
46319;DHT22;32042;50.916;2.926;2024-02-23T06:52:34;5.50;99.90
46319;DHT22;32042;50.916;2.926;2024-02-23T06:54:59;5.50;99.90
46319;DHT22;32042;50.916;2.926;2024-02-23T06:57:25;5.50;99.90
46319;DHT22;32042;50.916;2.926;2024-02-23T06:59:52;5.50;99.90
46319;DHT22;32042;50.916;2.926;2024-02-23T07:02:17;5.60;99.90
46319;DHT22;32042;50.916;2.926;2024-02-23T07:04:43;5.50;99.90
46319;DHT22;32042;50.916;2.926;2024-02-23T07:07:09;5.50;99.90
46319;DHT22;32042;50.916;2.926;2024-02-23T07:09:37;5.50;99.90
46319;DHT22;32042;50.916;2.926;2024-02-23T07:12:03;5.60;99.90
46319;DHT22;32042;50.916;2.926;2024-02-23T07:14:28;5.60;99.90
46319;DHT22;32042;50.916;2.926;2024-02-23T07:16:54;5.60;99.90
46319;DHT22;32042;50.916;2.926;2024-02-23T07:19:20;5.60;99.90
46319;DHT22;32042;50.916;2.926;2024-02-23T07:21:46;5.60;99.90
46319;DHT22;32042;50.916;2.926;2024-02-23T07:24:13;5.60;99.90
46319;DHT22;32042;50.916;2.926;2024-02-23T07:26:39;5.70;99.90
46319;DHT22;32042;50.916;2.926;2024-02-23T07:29:06;5.70;99.90
46319;DHT22;32042;50.916;2.926;2024-02-23T07:31:32;5.70;99.90
46319;DHT22;32042;50.916;2.926;2024-02-23T07:33:58;5.70;99.90
46319;DHT22;32042;50.916;2.926;2024-02-23T07:36:23;5.70;99.90
46319;DHT22;32042;50.916;2.926;2024-02-23T07:38:49;5.80;99.90
46319;DHT22;32042;50.916;2.926;2024-02-23T07:41:15;5.80;99.90
46319;DHT22;32042;50.916;2.926;2024-02-23T07:43:43;5.80;99.90
46319;DHT22;32042;50.916;2.926;2024-02-23T07:46:09;5.80;99.90
46319;DHT22;32042;50.916;2.926;2024-02-23T07:48:35;5.80;99.90
46319;DHT22;32042;50.916;2.926;2024-02-23T07:51:02;5.90;99.90
46319;DHT22;32042;50.916;2.926;2024-02-23T07:53:28;5.90;99.90
46319;DHT22;32042;50.916;2.926;2024-02-23T07:55:54;5.90;99.90
46319;DHT22;32042;50.916;2.926;2024-02-23T07:58:19;5.90;99.90
46319;DHT22;32042;50.916;2.926;2024-02-23T08:00:46;5.90;99.90
46319;DHT22;32042;50.916;2.926;2024-02-23T08:03:12;5.90;99.90
46319;DHT22;32042;50.916;2.926;2024-02-23T08:05:39;5.90;99.90
46319;DHT22;32042;50.916;2.926;2024-02-23T08:08:06;5.90;99.90
46319;DHT22;32042;50.916;2.926;2024-02-23T08:10:32;5.90;99.90
46319;DHT22;32042;50.916;2.926;2024-02-23T08:12:59;5.80;99.90
46319;DHT22;32042;50.916;2.926;2024-02-23T08:15:25;5.80;99.90
46319;DHT22;32042;50.916;2.926;2024-02-23T08:17:50;5.90;99.90
46319;DHT22;32042;50.916;2.926;2024-02-23T08:20:16;5.90;99.90
46319;DHT22;32042;50.916;2.926;2024-02-23T08:22:42;5.90;99.90
46319;DHT22;32042;50.916;2.926;2024-02-23T08:25:07;5.90;99.90
46319;DHT22;32042;50.916;2.926;2024-02-23T08:27:33;5.90;99.90
46319;DHT22;32042;50.916;2.926;2024-02-23T08:29:59;5.90;99.90
46319;DHT22;32042;50.916;2.926;2024-02-23T08:32:25;5.90;99.90
46319;DHT22;32042;50.916;2.926;2024-02-23T08:34:51;6.00;99.90
46319;DHT22;32042;50.916;2.926;2024-02-23T08:37:18;6.00;99.90
46319;DHT22;32042;50.916;2.926;2024-02-23T08:39:44;6.00;99.90
46319;DHT22;32042;50.916;2.926;2024-02-23T08:42:10;6.00;99.90
46319;DHT22;32042;50.916;2.926;2024-02-23T08:44:35;6.10;99.90
46319;DHT22;32042;50.916;2.926;2024-02-23T08:47:01;6.10;99.90
46319;DHT22;32042;50.916;2.926;2024-02-23T08:49:28;6.10;99.90
46319;DHT22;32042;50.916;2.926;2024-02-23T08:51:53;6.10;99.90
46319;DHT22;32042;50.916;2.926;2024-02-23T08:54:19;6.20;99.90
46319;DHT22;32042;50.916;2.926;2024-02-23T08:56:44;6.20;99.90
46319;DHT22;32042;50.916;2.926;2024-02-23T08:59:10;6.20;99.90
